Luis Torres

Scout - Newell's Old Boys
4 Apr 2027
Sonntag
Verarbeitung

Persönlichkeit

Anpassungsfähigkeit (12) Ehrgeiz (1) Kontroverse (3) Loyalität (11) Druck (7) Professionalität (10) Fairness (1) Temperament (1)

Profil

Trainerstil Demokratisch
Lizenz Kontinentale Pro
Entschlossenheit 12
Menschenführung 10
Motivation 9
Disziplin 6
Arbeitszufriedenheit
50%
Ermüdung
0%
Rolle Scout
Gehalt 82.9K p/W
Vertrag 14.03.2030

Leistung

Verhalten Normal
Trainingseffektivität
26%
Spielerentwicklung
35%
Verletzungsprävention
65%
Taktische Umsetzung
55%

Letzte Ereignisse

Spieler begutachtet jetzt
Spieler begutachtet jetzt
Nahm an einer Scouting-Besprechung teil jetzt
Spieler begutachtet jetzt
Spieler begutachtet jetzt
Spieler begutachtet 7T her
Spieler begutachtet 7T her
Spieler begutachtet 7T her

Aktuell beobachtet

230
Spieler Verein Status Fähigkeit Vertrauen Beobachtet Zuletzt beobachtet Letzte Stimme
Adrián Alavés Aktiv 116 / 118 40% 5 02.04.2027 -
Jamie Cumming Oxford United Aktiv 117 / 115 40% 2 02.04.2027 -
Manuel Roffo Cerro Porteno Aktiv 139 / 138 40% 4 31.03.2027 -
Andrija Katić AS Trencin Aktiv 116 / 117 40% 3 31.03.2027 -
Mauro Casoli Talleres Aktiv 98 / 109 40% 1 31.03.2027 -
Enzo Vázquez Central Norte Aktiv 108 / 108 40% 5 30.03.2027 -
Marquinhos Spartak Moscow Aktiv 140 / 130 40% 9 30.03.2027 -
David Volk Dinamo Makhachkala Aktiv 98 / 122 40% 2 30.03.2027 -
Chiquinho Alverca Aktiv 141 / 130 40% 2 30.03.2027 -
Juan Martín Rojas San Martín SJ Aktiv 111 / 104 40% 1 30.03.2027 -
Helinho Toluca Aktiv 127 / 129 40% 5 29.03.2027 -
Mark Helm Fleetwood Town Aktiv 99 / 109 40% 2 29.03.2027 -
Imrân Louza Watford Aktiv 133 / 117 40% 1 29.03.2027 -
Omari Hutchinson Nottingham Forest Aktiv 138 / 135 40% 1 29.03.2027 -
Esequiel Barco Spartak Moscow Aktiv 130 / 143 40% 1 29.03.2027 -
Jaden Philogene Ipswich Town Aktiv 142 / 150 40% 1 29.03.2027 -
Mateo Retegui Al-Qadisiyah Aktiv 161 / 148 40% 4 26.03.2027 -
Julián Quiñones Al-Qadisiyah Aktiv 140 / 133 40% 2 26.03.2027 -
Steven Bergwijn Al-Ittihad Aktiv 149 / 143 40% 5 26.03.2027 -
Luis Ingolotti Atlético Tucumán Aktiv 133 / 124 40% 5 25.03.2027 -
Luciano Gondou CSKA Moscow Aktiv 136 / 128 40% 4 25.03.2027 -
Brenner Vasco da Gama Aktiv 122 / 126 40% 2 25.03.2027 -
Nicolás Bolcato Independiente Rivadavia Aktiv 106 / 109 40% 1 25.03.2027 -
Emile Smith Rowe Fulham Aktiv 157 / 163 40% 2 24.03.2027 -
Reyes Cleary Barnsley Aktiv 121 / 125 40% 1 24.03.2027 -
Felipe Zenobio Tigre Aktiv 127 / 122 40% 7 22.03.2027 -
Mirlind Daku Spartak Moscow Aktiv 121 / 141 40% 2 22.03.2027 -
Youssef En-Nesyri Al-Ittihad Aktiv 138 / 134 40% 2 22.03.2027 -
Arthur Gomes Dinamo Moscow Aktiv 130 / 127 40% 3 20.03.2027 -
Ander Barrenetxea Real Sociedad Aktiv 150 / 156 40% 2 20.03.2027 -
Musa Barrow Al-Khaleej Aktiv 137 / 142 40% 2 20.03.2027 -
Milton Giménez Boca Juniors Aktiv 121 / 128 40% 1 20.03.2027 -
Jason Al-Fayha Aktiv 126 / 128 40% 1 20.03.2027 -
José Paradela Cruz Azul Aktiv 140 / 131 40% 2 19.03.2027 -
Santiago Silva Boston River Aktiv 113 / 120 40% 6 18.03.2027 -
Toni Fuidias Girona Aktiv 108 / 103 40% 2 18.03.2027 -
Emi Ochoa Real Sociedad Aktiv 112 / 123 40% 2 18.03.2027 -
Axel Openda KV Oostende Aktiv 129 / 124 40% 3 17.03.2027 -
Julio Alonso Huesca Aktiv 121 / 128 40% 2 17.03.2027 -
Yassine Benzia Al-Fayha Aktiv 120 / 120 40% 2 17.03.2027 -
Daniel Kyerewaa Reading Aktiv 110 / 122 40% 3 15.03.2027 -
Felipe Augusto Zenit Aktiv 127 / 134 40% 2 15.03.2027 -
Pablo Solari Spartak Moscow Aktiv 122 / 136 40% 2 15.03.2027 -
Lucas Villalba Botafogo Aktiv 122 / 120 40% 2 15.03.2027 -
Haji Wright Coventry City Aktiv 142 / 122 40% 3 15.03.2027 -
Galeno Al-Ahli Aktiv 153 / 142 40% 1 14.03.2027 -
Moussa Diaby Al-Ittihad Aktiv 152 / 141 40% 1 14.03.2027 -
Crysencio Summerville Al-Hilal Aktiv 155 / 132 40% 1 12.03.2027 -
Jay Gorter Pafos Aktiv 125 / 109 40% 1 12.03.2027 -
Fabrizio Correa Juventud Aktiv 126 / 118 40% 1 12.03.2027 -
Manfred Ugalde Spartak Moscow Aktiv 122 / 135 40% 3 09.03.2027 -
Younes Ebnoutalib Eintracht Frankfurt Aktiv 142 / 122 40% 2 09.03.2027 -
Martin Trnovský Podbrezova Aktiv 103 / 123 40% 3 08.03.2027 -
Nicolás Sumavil Platense Aktiv 111 / 120 40% 2 08.03.2027 -
Ivor Pandur Hull City Aktiv 120 / 130 40% 4 08.03.2027 -
Exequiel Zeballos Boca Juniors Aktiv 131 / 133 40% 1 07.03.2027 -
Chris Ramos Botafogo Aktiv 134 / 131 40% 1 07.03.2027 -
Gonzalo Plata Dinamo Moscow Aktiv 143 / 140 40% 3 05.03.2027 -
Ammar Ramadan DAC Dunajska Streda Aktiv 116 / 124 40% 2 05.03.2027 -
Lebohang Maboe Kaizer Chiefs Aktiv 112 / 120 40% 1 05.03.2027 -
Percy Erasmus SuperSport United Aktiv 117 / 115 40% 3 03.03.2027 -
João Valido Chaves Aktiv 116 / 104 40% 3 03.03.2027 -
Iqraam Rayners Mamelodi Sundowns Aktiv 120 / 130 40% 2 03.03.2027 -
Alexandr Sobolev Zenit Aktiv 123 / 126 40% 2 03.03.2027 -
Raúl García Osasuna Aktiv 132 / 143 40% 1 03.03.2027 -
Miguel Silva Carabobo Aktiv 109 / 103 40% 1 03.03.2027 -
Patrick Maswanganyi Orlando Pirates Aktiv 119 / 126 40% 1 03.03.2027 -
Egoitz Arana Real Sociedad Aktiv 111 / 104 40% 4 01.03.2027 -
Haissem Hassan Bloemfontein Celtic Aktiv 137 / 124 40% 2 01.03.2027 -
Teboho Tau Ajax Cape Town Aktiv 115 / 112 40% 1 01.03.2027 -
Uriel Antuna Dinamo Moscow Aktiv 129 / 128 40% 2 27.02.2027 -
Giovanni Simeone Torino Aktiv 129 / 142 40% 1 27.02.2027 -
Job Ochieng Real Sociedad Aktiv 105 / 105 40% 4 24.02.2027 -
Mduduzi Shabalala Kaizer Chiefs Aktiv 104 / 114 40% 2 24.02.2027 -
Chuba Akpom Ipswich Town Aktiv 138 / 133 40% 1 24.02.2027 -
Moussa Dembélé Al-Ettifaq Aktiv 131 / 130 40% 2 23.02.2027 -
Sebastián Driussi River Plate Aktiv 136 / 126 40% 1 23.02.2027 -
Thalente Mbatha Orlando Pirates Aktiv 117 / 126 40% 1 22.02.2027 -
Mateusz Kochalski Qarabag Aktiv 138 / 129 40% 2 19.02.2027 -
George Wickens Lincoln City Aktiv 120 / 118 40% 2 19.02.2027 -
Yusuke Matsuo CSKA Moscow Aktiv 119 / 120 40% 1 17.02.2027 -
Morgan Whittaker Middlesbrough Aktiv 119 / 127 40% 1 17.02.2027 -
Cristopher Varela Deportivo La Guaira Aktiv 109 / 109 40% 5 16.02.2027 -
Nikita Kokarev Krylya Sovetov Aktiv 111 / 117 40% 4 16.02.2027 -
Marios Siabanis Volos NPS Aktiv 109 / 120 40% 2 16.02.2027 -
Dor Turgeman New England Revolution Aktiv 134 / 123 40% 1 14.02.2027 -
Fashion Sakala Al-Fayha Aktiv 130 / 124 40% 2 12.02.2027 -
Daniil Frolkin Fakel Aktiv 114 / 97 40% 3 10.02.2027 -
Kwadwo Duah Ludogorets Aktiv 121 / 114 40% 2 10.02.2027 -
Ivan Toney Al-Ahli Aktiv 157 / 147 40% 1 10.02.2027 -
Santiago Beltrán River Plate Aktiv 121 / 126 40% 1 03.02.2027 -
Aldo Pérez Guarani Aktiv 111 / 109 40% 1 02.02.2027 -
Fedor Lapoukhov CSKA Sofia Aktiv 118 / 132 40% 2 01.02.2027 -
Veljko Birmančević Ferencvaros Aktiv 136 / 138 40% 1 01.02.2027 -
Jean-Luc Morin Tours Aktiv 134 / 145 40% 1 01.02.2027 -
Faiz Mattoir Septemvri Aktiv 98 / 119 40% 2 29.01.2027 -
Turki Al-Ammar Al-Qadisiyah Aktiv 119 / 113 40% 1 29.01.2027 -
Alejo Dramisino Honved Aktiv 115 / 129 40% 2 26.01.2027 -
Martin Velichkov Lokomotiv Sofia Aktiv 96 / 119 40% 3 25.01.2027 -
Oufa Shobeir ES Setif Aktiv 127 / 131 40% 1 25.01.2027 -
Dimitar Sheytanov CSKA 1948 Aktiv 99 / 99 40% 1 25.01.2027 -
Nahuel Manganelli Dinamo Batumi Aktiv 118 / 113 40% 8 23.01.2027 -
Lebogang Erasmus Platinum Stars Aktiv 101 / 108 40% 2 20.01.2027 -
Franko Kovačević Ferencvaros Aktiv 122 / 127 40% 1 20.01.2027 -
Gerónimo Rivera Al Wahda Aktiv 131 / 130 40% 1 20.01.2027 -
Mandla Jali SuperSport United Aktiv 127 / 125 40% 4 19.01.2027 -
Svetoslav Vutsov Levski Aktiv 131 / 135 40% 1 19.01.2027 -
Sebastián Meza Huracán Aktiv 129 / 120 40% 6 16.01.2027 -
Heorhii Yermakov Metalist Aktiv 106 / 120 40% 2 16.01.2027 -
Agustín Ramírez Inter Aktiv 120 / 117 40% 2 15.01.2027 -
Kyreece Lisbie Colchester United Aktiv 116 / 97 40% 1 15.01.2027 -
Marouan Azarkan Al Nasr Aktiv 115 / 130 40% 1 14.01.2027 -
Siyanda Ndlovu Hearts of Oak Aktiv 125 / 127 40% 1 14.01.2027 -
Evidence Billiat Ajax Cape Town Aktiv 116 / 115 40% 2 13.01.2027 -
Itumeleng Tau Ajax Cape Town Aktiv 120 / 125 40% 2 13.01.2027 -
Serginho Al Wasl Aktiv 125 / 116 40% 1 13.01.2027 -
Nazar Voloshyn Dynamo Kyiv Aktiv 138 / 136 40% 1 09.01.2027 -
Milson Al Jazira Aktiv 119 / 109 40% 1 09.01.2027 -
Brian Figueroa Morelia Aktiv 104 / 106 40% 4 07.01.2027 -
Sergey Pinyaev Lokomotiv Moscow Aktiv 130 / 133 40% 3 07.01.2027 -
Ivan Pakholiuk Kolos Aktiv 114 / 112 40% 1 07.01.2027 -
Juan Pablo Gallego Fehervar Aktiv 104 / 118 40% 1 06.01.2027 -
Majid Dejagah Gostaresh Foulad Aktiv 118 / 128 40% 2 05.01.2027 -
Ronaldo Rostov Aktiv 123 / 129 40% 1 04.01.2027 -
Santiago Luján Al Ain Aktiv 123 / 124 40% 1 04.01.2027 -
Richard Ludha MFK Skalica Aktiv 106 / 104 40% 1 03.01.2027 -
Dominik Takáč Slovan Bratislava Aktiv 137 / 138 40% 1 02.01.2027 -
Roger Hinojo Espanyol Aktiv 110 / 131 40% 2 31.12.2026 -
Fernando Tapia Club America Aktiv 132 / 137 40% 2 29.12.2026 -
Denys Ihnatenko Livyi Bereh Aktiv 120 / 105 40% 1 28.12.2026 -
Dmytro Riznyk Shakhtar Aktiv 140 / 127 40% 1 27.12.2026 -
Parsa Jafari Zob Ahan Aktiv 105 / 111 40% 1 27.12.2026 -
Facundo Torres Shakhtar Aktiv 141 / 122 40% 1 26.12.2026 -
Afimico Pululu Al-Hazem Abgelehnt 126 / 134 40% 2 14.12.2026 Mehr Infos nötig
Seedy Jatta Sturm Graz Aktiv 126 / 125 40% 1 01.12.2026 -
Marcelino Moreno Lanús Aktiv 127 / 121 40% 2 29.11.2026 -
Oston O'runov Persepolis Aktiv 118 / 108 40% 1 29.11.2026 -
Thiago Almada River Plate Aktiv 146 / 146 40% 1 28.11.2026 -
Tomás O'Connor Gimnasia y Esgrima Aktiv 124 / 132 40% 1 28.11.2026 -
Fernando Valenzuela Queretaro Aktiv 126 / 118 40% 3 27.11.2026 -
Marcelo Allende Mamelodi Sundowns Aktiv 129 / 142 40% 2 27.11.2026 -
Ali Soliman Masr El Makasa Aktiv 129 / 125 40% 1 26.11.2026 -
Santiago Montiel Independiente Aktiv 122 / 129 40% 2 23.11.2026 -
Suleiman Camara Slovan Bratislava Aktiv 120 / 119 40% 1 23.11.2026 -
Batxi Krasnodar Aktiv 121 / 140 40% 1 23.11.2026 -
Sergej Milinković-Savić Al-Hilal Aktiv 158 / 169 40% 1 22.11.2026 -
Ulises Sánchez Gimnasia y Esgrima Aktiv 133 / 128 40% 2 20.11.2026 -
Relebohile Mofokeng Orlando Pirates Aktiv 113 / 126 40% 2 20.11.2026 -
Mauro Arambarri River Plate Abgelehnt 147 / 145 40% 2 20.11.2026 Mehr Infos nötig
Răzvan Sava Universitatea Craiova Aktiv 118 / 127 40% 1 19.11.2026 -
Teboho Williams SuperSport United Aktiv 111 / 132 40% 4 17.11.2026 -
Ferland Mendy Real Madrid Aktiv 147 / 156 40% 1 16.11.2026 -
Malcom Al Jazira Aktiv 156 / 144 40% 1 14.11.2026 -
Nahuel Ulariaga Al Ahli Aktiv 128 / 120 40% 2 10.11.2026 -
Alan Velasco Boca Juniors Aktiv 134 / 139 40% 1 10.11.2026 -
Camilo Durán Bloemfontein Celtic Aktiv 108 / 124 40% 7 09.11.2026 -
Fernando Gorriarán Tigres Aktiv 130 / 131 40% 2 09.11.2026 -
Ritsu Doan Gamba Osaka Aktiv 142 / 156 40% 1 06.11.2026 -
Leopold Wahlstedt Rosenborg Abgelehnt 120 / 103 40% 1 04.11.2026 Mehr Infos nötig
Lukáš Provod Slavia Prague Abgelehnt 151 / 142 40% 4 02.11.2026 Ablehnen
Alex Luna Instituto Aktiv 131 / 125 40% 2 02.11.2026 -
Gastón Lodico Racing Club Aktiv 130 / 122 40% 2 02.11.2026 -
Matko Miljevic Racing Club Aktiv 120 / 125 40% 2 01.11.2026 -
Timi Max Elšnik Crvena Zvezda Aktiv 122 / 124 40% 1 01.11.2026 -
Anthony Racioppi Sion Aktiv 111 / 119 40% 1 31.10.2026 -
Luciano Jachfe Nueva Chicago Aktiv 114 / 112 40% 1 31.10.2026 -
Erik Botheim Malmo FF Aktiv 130 / 133 40% 1 29.10.2026 -
Aarón Molinas Defensa y Justicia Aktiv 128 / 135 40% 1 27.10.2026 -
Domagoj Drožđek Tractor Aktiv 124 / 125 40% 1 27.10.2026 -
Agustín Lastra Estudiantes Aktiv 104 / 115 40% 1 26.10.2026 -
Lukas Gütlbauer Wolfsberger AC Abgelehnt 115 / 127 40% 1 26.10.2026 Mehr Infos nötig
Iván Martín Racing Club Aktiv 143 / 149 40% 1 26.10.2026 -
Luka Gavran Toronto FC Aktiv 104 / 116 40% 1 24.10.2026 -
Jonás Acevedo Instituto Aktiv 116 / 115 40% 2 22.10.2026 -
John Pulskamp Sporting Kansas City Aktiv 116 / 116 40% 2 21.10.2026 -
Juan Bisanz Huracán Aktiv 132 / 123 40% 3 18.10.2026 -
Ángel Correa River Plate Aktiv 144 / 143 40% 2 18.10.2026 -
Tomás Ahumada Audax Italiano Aktiv 108 / 105 40% 1 13.10.2026 -
Iván Angulo Orlando City Aktiv 131 / 118 40% 1 12.10.2026 -
Kazuki Fujita Avispa Fukuoka Aktiv 119 / 117 40% 1 09.10.2026 -
Ryan Gauld Vancouver Whitecaps Aktiv 129 / 130 40% 2 07.10.2026 -
César Ibáñez Huracán Aktiv 131 / 123 40% 2 07.10.2026 -
Sebastián Villa Boca Juniors Aktiv 130 / 124 40% 1 07.10.2026 -
Taisei Miyashiro Seattle Sounders Aktiv 122 / 126 40% 1 05.10.2026 -
Leandro Lozano Boca Juniors Aktiv 118 / 128 40% 1 05.10.2026 -
Javier Altamirano Universidad de Chile Aktiv 128 / 117 40% 1 05.10.2026 -
Pablo Maffeo Olympiacos Aktiv 129 / 133 40% 2 04.10.2026 -
Adrián Marín Orlando City Aktiv 133 / 134 40% 1 04.10.2026 -
Santino Barbi Talleres Aktiv 103 / 114 40% 1 03.10.2026 -
Axel Alderweireld KV Oostende Aktiv 131 / 137 40% 1 03.10.2026 -
Justo Giani Universidad Catolica Aktiv 115 / 119 40% 1 02.10.2026 -
Nahuel Galardi Maipú Aktiv 112 / 115 40% 1 01.10.2026 -
Jonathan Bamba Chicago Fire Aktiv 137 / 134 40% 1 01.10.2026 -
Chris Brady Chicago Fire Aktiv 129 / 132 40% 1 28.09.2026 -
Diego Romero Universitario Aktiv 118 / 130 40% 1 28.09.2026 -
Diego Luna Real Salt Lake Aktiv 122 / 124 40% 1 27.09.2026 -
Santiago Toloza O'Higgins Aktiv 116 / 126 40% 1 25.09.2026 -
Nahuel Furtado Wanderers Aktiv 122 / 117 40% 1 25.09.2026 -
Juan Moreno Cerro Largo Aktiv 114 / 116 40% 1 25.09.2026 -
Joaquín Enrico San Telmo Aktiv 106 / 99 40% 1 25.09.2026 -
Esteban Glellel Shonan Bellmare Aktiv 115 / 106 40% 2 22.09.2026 -
Emiliano Márquez Central Espanol Aktiv 91 / 94 40% 1 22.09.2026 -
Matías Dufour Sportivo Trinidense Aktiv 111 / 103 40% 1 22.09.2026 -
Felipe Parra Envigado Aktiv 113 / 115 40% 2 19.09.2026 -
Ozziel Herrera Tigres Aktiv 128 / 122 40% 1 19.09.2026 -
Jesús Garza Tigres Aktiv 130 / 121 40% 1 19.09.2026 -
Lucas Verza Olimpia Aktiv 118 / 118 40% 1 19.09.2026 -
Alejandro Rodríguez Deportivo Cali Aktiv 120 / 131 40% 1 18.09.2026 -
Manuel Gutierrez Veracruz Aktiv 117 / 132 40% 1 16.09.2026 -
Jesús Angulo Tigres Aktiv 142 / 126 40% 1 16.09.2026 -
Iker Benito Queretaro Aktiv 126 / 115 40% 1 16.09.2026 -
Federico Losas Leon Aktiv 111 / 118 40% 1 15.09.2026 -
Francisco Salerno Defensores Unidos Aktiv 109 / 102 40% 1 14.09.2026 -
Rodrigo Morínigo Libertad Aktiv 117 / 117 40% 1 13.09.2026 -
Federico Varese Racing Aktiv 109 / 118 40% 1 13.09.2026 -
Agustín Palavecino Cruz Azul Aktiv 141 / 128 40% 2 12.09.2026 -
Diego Lainez Tigres Aktiv 136 / 134 40% 1 12.09.2026 -
Cristian Montero Veracruz Aktiv 131 / 137 40% 1 12.09.2026 -
Carlos Rodríguez Cruz Azul Aktiv 132 / 128 40% 1 10.09.2026 -
Gerardo Arteaga Monterrey Aktiv 136 / 120 40% 1 10.09.2026 -
Roman Celentano FC Cincinnati Aktiv 119 / 111 40% 1 10.09.2026 -
Weibmar Asprilla Independiente Medellin Aktiv 113 / 108 40% 1 09.09.2026 -
Héctor Holguín Gamba Osaka Aktiv 107 / 99 40% 1 09.09.2026 -
Patrick Schulte Columbus Crew Aktiv 122 / 128 40% 1 09.09.2026 -
Emerson Batalla Atletico Bucaramanga Aktiv 116 / 117 40% 1 08.09.2026 -
Curro Burgos Aktiv 141 / 119 40% 1 02.08.2026 -
Alejandro Zendejas Club America Aktiv 142 / 137 40% 1 02.08.2026 -
Sebastián Córdova Pumas UNAM Aktiv 130 / 122 40% 1 01.08.2026 -
Ander Guevara Alavés Aktiv 124 / 124 40% 1 01.08.2026 -
Amath N'Diaye Valladolid Aktiv 129 / 121 40% 1 01.08.2026 -